sensor_id;sensor_type;location;lat;lon;timestamp;temperature;humidity
38480;DHT22;62333;51.980;5.934;2023-05-07T00:00:00;18.20;90.70
38480;DHT22;62333;51.980;5.934;2023-05-07T00:02:26;18.20;90.70
38480;DHT22;62333;51.980;5.934;2023-05-07T00:04:52;18.20;90.70
38480;DHT22;62333;51.980;5.934;2023-05-07T00:07:18;18.10;90.70
38480;DHT22;62333;51.980;5.934;2023-05-07T00:09:43;18.10;90.70
38480;DHT22;62333;51.980;5.934;2023-05-07T00:12:10;18.10;90.70
38480;DHT22;62333;51.980;5.934;2023-05-07T00:14:35;18.10;90.70
38480;DHT22;62333;51.980;5.934;2023-05-07T00:17:01;18.10;90.70
38480;DHT22;62333;51.980;5.934;2023-05-07T00:19:27;18.10;90.70
38480;DHT22;62333;51.980;5.934;2023-05-07T00:21:53;18.00;90.70
38480;DHT22;62333;51.980;5.934;2023-05-07T00:24:19;18.00;90.70
38480;DHT22;62333;51.980;5.934;2023-05-07T00:26:45;18.00;90.70
38480;DHT22;62333;51.980;5.934;2023-05-07T00:29:11;17.90;90.60
38480;DHT22;62333;51.980;5.934;2023-05-07T00:31:36;17.90;90.60
38480;DHT22;62333;51.980;5.934;2023-05-07T00:34:02;17.90;90.60
38480;DHT22;62333;51.980;5.934;2023-05-07T00:36:28;17.90;90.70
38480;DHT22;62333;51.980;5.934;2023-05-07T00:38:56;17.90;90.70
38480;DHT22;62333;51.980;5.934;2023-05-07T00:41:22;17.90;90.70
38480;DHT22;62333;51.980;5.934;2023-05-07T00:43:48;17.80;90.70
38480;DHT22;62333;51.980;5.934;2023-05-07T00:46:13;17.80;90.80
38480;DHT22;62333;51.980;5.934;2023-05-07T00:48:41;17.80;90.80
38480;DHT22;62333;51.980;5.934;2023-05-07T00:51:06;17.80;90.90
38480;DHT22;62333;51.980;5.934;2023-05-07T00:53:32;17.80;90.90
38480;DHT22;62333;51.980;5.934;2023-05-07T00:55:58;17.70;91.00
38480;DHT22;62333;51.980;5.934;2023-05-07T00:58:24;17.70;91.00
38480;DHT22;62333;51.980;5.934;2023-05-07T01:00:50;17.70;91.00
38480;DHT22;62333;51.980;5.934;2023-05-07T01:03:16;17.70;91.10
38480;DHT22;62333;51.980;5.934;2023-05-07T01:05:43;17.60;91.00
38480;DHT22;62333;51.980;5.934;2023-05-07T01:08:10;17.60;91.10
38480;DHT22;62333;51.980;5.934;2023-05-07T01:10:36;17.60;91.00
38480;DHT22;62333;51.980;5.934;2023-05-07T01:13:02;17.60;91.10
38480;DHT22;62333;51.980;5.934;2023-05-07T01:15:28;17.50;91.00
38480;DHT22;62333;51.980;5.934;2023-05-07T01:17:53;17.50;91.10
38480;DHT22;62333;51.980;5.934;2023-05-07T01:20:22;17.50;91.10
38480;DHT22;62333;51.980;5.934;2023-05-07T01:22:49;17.50;91.10
38480;DHT22;62333;51.980;5.934;2023-05-07T01:25:15;17.50;91.10
38480;DHT22;62333;51.980;5.934;2023-05-07T01:27:41;17.50;91.10
38480;DHT22;62333;51.980;5.934;2023-05-07T01:30:07;17.50;91.10
38480;DHT22;62333;51.980;5.934;2023-05-07T01:32:53;17.50;91.20
38480;DHT22;62333;51.980;5.934;2023-05-07T01:35:25;17.40;91.20
38480;DHT22;62333;51.980;5.934;2023-05-07T01:37:53;17.40;91.20
38480;DHT22;62333;51.980;5.934;2023-05-07T01:40:20;17.40;91.20
38480;DHT22;62333;51.980;5.934;2023-05-07T01:42:46;17.40;91.20
38480;DHT22;62333;51.980;5.934;2023-05-07T01:45:14;17.40;91.30
38480;DHT22;62333;51.980;5.934;2023-05-07T01:47:39;17.40;91.30
38480;DHT22;62333;51.980;5.934;2023-05-07T01:50:06;17.40;91.30
38480;DHT22;62333;51.980;5.934;2023-05-07T01:52:34;17.40;91.30
38480;DHT22;62333;51.980;5.934;2023-05-07T01:55:00;17.40;91.30
38480;DHT22;62333;51.980;5.934;2023-05-07T01:57:25;17.40;91.30
38480;DHT22;62333;51.980;5.934;2023-05-07T01:59:51;17.40;91.30
38480;DHT22;62333;51.980;5.934;2023-05-07T02:02:17;17.40;91.30
38480;DHT22;62333;51.980;5.934;2023-05-07T02:04:42;17.40;91.30
38480;DHT22;62333;51.980;5.934;2023-05-07T02:07:08;17.40;91.30
38480;DHT22;62333;51.980;5.934;2023-05-07T02:09:34;17.40;91.30
38480;DHT22;62333;51.980;5.934;2023-05-07T02:12:00;17.40;91.30
38480;DHT22;62333;51.980;5.934;2023-05-07T02:14:25;17.40;91.30
38480;DHT22;62333;51.980;5.934;2023-05-07T02:16:51;17.40;91.40
38480;DHT22;62333;51.980;5.934;2023-05-07T02:19:17;17.40;91.30
38480;DHT22;62333;51.980;5.934;2023-05-07T02:21:43;17.40;91.30
38480;DHT22;62333;51.980;5.934;2023-05-07T02:24:09;17.30;91.30
38480;DHT22;62333;51.980;5.934;2023-05-07T02:26:34;17.40;91.30
38480;DHT22;62333;51.980;5.934;2023-05-07T02:29:00;17.40;91.30
38480;DHT22;62333;51.980;5.934;2023-05-07T02:31:26;17.30;91.30
38480;DHT22;62333;51.980;5.934;2023-05-07T02:33:51;17.30;91.30
38480;DHT22;62333;51.980;5.934;2023-05-07T02:36:17;17.30;91.30
38480;DHT22;62333;51.980;5.934;2023-05-07T02:38:43;17.30;91.30
38480;DHT22;62333;51.980;5.934;2023-05-07T02:41:08;17.30;91.30
38480;DHT22;62333;51.980;5.934;2023-05-07T02:43:34;17.30;91.30
38480;DHT22;62333;51.980;5.934;2023-05-07T02:46:09;17.30;91.30
38480;DHT22;62333;51.980;5.934;2023-05-07T02:48:35;17.30;91.40
38480;DHT22;62333;51.980;5.934;2023-05-07T02:51:01;17.30;91.40
38480;DHT22;62333;51.980;5.934;2023-05-07T02:53:27;17.20;91.40
38480;DHT22;62333;51.980;5.934;2023-05-07T02:55:53;17.30;91.50
38480;DHT22;62333;51.980;5.934;2023-05-07T02:58:19;17.20;91.40
38480;DHT22;62333;51.980;5.934;2023-05-07T03:00:45;17.20;91.50
38480;DHT22;62333;51.980;5.934;2023-05-07T03:03:10;17.20;91.40
38480;DHT22;62333;51.980;5.934;2023-05-07T03:05:36;17.20;91.40
38480;DHT22;62333;51.980;5.934;2023-05-07T03:08:02;17.20;91.40
38480;DHT22;62333;51.980;5.934;2023-05-07T03:10:29;17.20;91.40
38480;DHT22;62333;51.980;5.934;2023-05-07T03:12:55;17.20;91.40
38480;DHT22;62333;51.980;5.934;2023-05-07T03:15:21;17.20;91.40
38480;DHT22;62333;51.980;5.934;2023-05-07T03:17:47;17.20;91.50
38480;DHT22;62333;51.980;5.934;2023-05-07T03:20:13;17.20;91.50
38480;DHT22;62333;51.980;5.934;2023-05-07T03:22:39;17.20;91.50
38480;DHT22;62333;51.980;5.934;2023-05-07T03:25:06;17.10;91.50
38480;DHT22;62333;51.980;5.934;2023-05-07T03:27:31;17.10;91.50
38480;DHT22;62333;51.980;5.934;2023-05-07T03:29:57;17.10;91.50
38480;DHT22;62333;51.980;5.934;2023-05-07T03:32:23;17.00;91.50
38480;DHT22;62333;51.980;5.934;2023-05-07T03:34:48;17.10;91.50
38480;DHT22;62333;51.980;5.934;2023-05-07T03:37:14;17.00;91.50
38480;DHT22;62333;51.980;5.934;2023-05-07T03:39:40;17.00;91.50
38480;DHT22;62333;51.980;5.934;2023-05-07T03:42:05;17.00;91.50
38480;DHT22;62333;51.980;5.934;2023-05-07T03:44:31;17.00;91.50
38480;DHT22;62333;51.980;5.934;2023-05-07T03:46:56;17.00;91.50
38480;DHT22;62333;51.980;5.934;2023-05-07T03:49:22;16.90;91.50
38480;DHT22;62333;51.980;5.934;2023-05-07T03:51:48;16.90;91.50
38480;DHT22;62333;51.980;5.934;2023-05-07T03:54:13;16.80;91.50
38480;DHT22;62333;51.980;5.934;2023-05-07T03:56:39;16.80;91.60
38480;DHT22;62333;51.980;5.934;2023-05-07T03:59:05;16.80;91.60
38480;DHT22;62333;51.980;5.934;2023-05-07T04:01:31;16.70;91.60
38480;DHT22;62333;51.980;5.934;2023-05-07T04:03:56;16.70;91.70
38480;DHT22;62333;51.980;5.934;2023-05-07T04:06:22;16.70;91.70
38480;DHT22;62333;51.980;5.934;2023-05-07T04:08:48;16.70;91.70
38480;DHT22;62333;51.980;5.934;2023-05-07T04:11:13;16.60;91.70
38480;DHT22;62333;51.980;5.934;2023-05-07T04:13:39;16.70;92.10
38480;DHT22;62333;51.980;5.934;2023-05-07T04:16:05;16.60;91.80
38480;DHT22;62333;51.980;5.934;2023-05-07T04:18:31;16.60;91.80
38480;DHT22;62333;51.980;5.934;2023-05-07T04:20:56;16.60;91.90
38480;DHT22;62333;51.980;5.934;2023-05-07T04:23:22;16.60;91.90
38480;DHT22;62333;51.980;5.934;2023-05-07T04:25:48;16.60;91.90
38480;DHT22;62333;51.980;5.934;2023-05-07T04:28:13;16.60;92.00
38480;DHT22;62333;51.980;5.934;2023-05-07T04:30:39;16.60;92.00
38480;DHT22;62333;51.980;5.934;2023-05-07T04:33:06;16.60;92.00
38480;DHT22;62333;51.980;5.934;2023-05-07T04:35:33;16.60;92.10
38480;DHT22;62333;51.980;5.934;2023-05-07T04:37:59;16.60;92.10
38480;DHT22;62333;51.980;5.934;2023-05-07T04:40:25;16.70;92.20
38480;DHT22;62333;51.980;5.934;2023-05-07T04:42:51;16.60;92.20
38480;DHT22;62333;51.980;5.934;2023-05-07T04:45:16;16.70;92.30
38480;DHT22;62333;51.980;5.934;2023-05-07T04:47:42;16.70;92.40
38480;DHT22;62333;51.980;5.934;2023-05-07T04:50:08;16.70;92.40
38480;DHT22;62333;51.980;5.934;2023-05-07T04:52:34;16.70;92.50
38480;DHT22;62333;51.980;5.934;2023-05-07T04:55:00;16.70;92.60
38480;DHT22;62333;51.980;5.934;2023-05-07T04:57:26;16.70;92.60
38480;DHT22;62333;51.980;5.934;2023-05-07T04:59:52;16.70;92.60
38480;DHT22;62333;51.980;5.934;2023-05-07T05:02:18;16.70;92.70
38480;DHT22;62333;51.980;5.934;2023-05-07T05:04:44;16.70;92.70
38480;DHT22;62333;51.980;5.934;2023-05-07T05:07:10;16.70;92.70
38480;DHT22;62333;51.980;5.934;2023-05-07T05:09:35;16.70;92.70
38480;DHT22;62333;51.980;5.934;2023-05-07T05:12:01;16.70;92.80
38480;DHT22;62333;51.980;5.934;2023-05-07T05:14:27;16.70;92.80
38480;DHT22;62333;51.980;5.934;2023-05-07T05:16:52;16.60;92.80
38480;DHT22;62333;51.980;5.934;2023-05-07T05:19:18;16.60;92.80
38480;DHT22;62333;51.980;5.934;2023-05-07T05:21:44;16.60;92.80
38480;DHT22;62333;51.980;5.934;2023-05-07T05:24:10;16.60;92.80
38480;DHT22;62333;51.980;5.934;2023-05-07T05:26:35;16.60;92.80
38480;DHT22;62333;51.980;5.934;2023-05-07T05:29:01;16.60;92.90
38480;DHT22;62333;51.980;5.934;2023-05-07T05:31:26;16.60;92.90
38480;DHT22;62333;51.980;5.934;2023-05-07T05:33:52;16.60;93.00
38480;DHT22;62333;51.980;5.934;2023-05-07T05:36:18;16.60;93.00
38480;DHT22;62333;51.980;5.934;2023-05-07T05:38:43;16.60;93.00
38480;DHT22;62333;51.980;5.934;2023-05-07T05:41:10;16.60;93.00
38480;DHT22;62333;51.980;5.934;2023-05-07T05:43:35;16.60;93.00
38480;DHT22;62333;51.980;5.934;2023-05-07T05:46:01;16.60;92.90
38480;DHT22;62333;51.980;5.934;2023-05-07T05:48:29;16.60;93.00
38480;DHT22;62333;51.980;5.934;2023-05-07T05:50:54;16.60;93.00
38480;DHT22;62333;51.980;5.934;2023-05-07T05:53:20;16.60;93.00
38480;DHT22;62333;51.980;5.934;2023-05-07T05:55:46;16.60;93.10
38480;DHT22;62333;51.980;5.934;2023-05-07T05:58:11;16.70;93.10
38480;DHT22;62333;51.980;5.934;2023-05-07T06:00:37;16.70;93.10
38480;DHT22;62333;51.980;5.934;2023-05-07T06:03:03;16.70;93.10
38480;DHT22;62333;51.980;5.934;2023-05-07T06:05:28;16.70;93.10
38480;DHT22;62333;51.980;5.934;2023-05-07T06:07:54;16.70;93.10
38480;DHT22;62333;51.980;5.934;2023-05-07T06:10:20;16.70;93.10
38480;DHT22;62333;51.980;5.934;2023-05-07T06:12:45;16.70;93.20
38480;DHT22;62333;51.980;5.934;2023-05-07T06:15:11;16.80;93.30
38480;DHT22;62333;51.980;5.934;2023-05-07T06:17:37;16.70;93.20
38480;DHT22;62333;51.980;5.934;2023-05-07T06:20:03;16.80;93.20
38480;DHT22;62333;51.980;5.934;2023-05-07T06:22:29;16.80;93.30
38480;DHT22;62333;51.980;5.934;2023-05-07T06:24:54;16.80;93.30
38480;DHT22;62333;51.980;5.934;2023-05-07T06:27:20;16.80;93.40
38480;DHT22;62333;51.980;5.934;2023-05-07T06:29:48;16.80;93.40
38480;DHT22;62333;51.980;5.934;2023-05-07T06:32:14;16.80;93.40
38480;DHT22;62333;51.980;5.934;2023-05-07T06:34:40;16.80;93.40
38480;DHT22;62333;51.980;5.934;2023-05-07T06:37:06;16.90;93.50
38480;DHT22;62333;51.980;5.934;2023-05-07T06:39:31;16.80;93.50
38480;DHT22;62333;51.980;5.934;2023-05-07T06:41:57;16.80;93.50
38480;DHT22;62333;51.980;5.934;2023-05-07T06:44:23;16.90;93.40
38480;DHT22;62333;51.980;5.934;2023-05-07T06:46:49;16.90;93.40
38480;DHT22;62333;51.980;5.934;2023-05-07T06:49:14;16.90;93.40
38480;DHT22;62333;51.980;5.934;2023-05-07T06:51:40;16.90;93.50
38480;DHT22;62333;51.980;5.934;2023-05-07T06:54:06;16.90;93.50
38480;DHT22;62333;51.980;5.934;2023-05-07T06:56:32;16.90;93.50
38480;DHT22;62333;51.980;5.934;2023-05-07T06:59:00;16.90;93.50
38480;DHT22;62333;51.980;5.934;2023-05-07T07:01:26;17.00;93.50
38480;DHT22;62333;51.980;5.934;2023-05-07T07:03:51;16.90;93.40
38480;DHT22;62333;51.980;5.934;2023-05-07T07:06:17;17.00;93.40
38480;DHT22;62333;51.980;5.934;2023-05-07T07:08:43;17.00;93.40
38480;DHT22;62333;51.980;5.934;2023-05-07T07:11:09;17.10;93.40
38480;DHT22;62333;51.980;5.934;2023-05-07T07:13:35;17.00;93.30
38480;DHT22;62333;51.980;5.934;2023-05-07T07:16:01;17.10;93.30
38480;DHT22;62333;51.980;5.934;2023-05-07T07:18:27;17.10;93.30
38480;DHT22;62333;51.980;5.934;2023-05-07T07:20:52;17.10;93.20
38480;DHT22;62333;51.980;5.934;2023-05-07T07:23:18;17.10;93.20
38480;DHT22;62333;51.980;5.934;2023-05-07T07:25:44;17.10;93.10
38480;DHT22;62333;51.980;5.934;2023-05-07T07:28:10;17.20;93.10
38480;DHT22;62333;51.980;5.934;2023-05-07T07:30:36;17.20;93.10
38480;DHT22;62333;51.980;5.934;2023-05-07T07:33:02;17.20;93.00
38480;DHT22;62333;51.980;5.934;2023-05-07T07:35:32;17.20;93.00
38480;DHT22;62333;51.980;5.934;2023-05-07T07:37:58;17.20;93.00
38480;DHT22;62333;51.980;5.934;2023-05-07T07:40:24;17.20;92.90
38480;DHT22;62333;51.980;5.934;2023-05-07T07:42:51;17.30;92.90
38480;DHT22;62333;51.980;5.934;2023-05-07T07:45:16;17.30;92.80
38480;DHT22;62333;51.980;5.934;2023-05-07T07:47:42;17.30;92.80
38480;DHT22;62333;51.980;5.934;2023-05-07T07:50:08;17.30;92.70
38480;DHT22;62333;51.980;5.934;2023-05-07T07:52:34;17.30;92.70
38480;DHT22;62333;51.980;5.934;2023-05-07T07:55:00;17.30;92.70
38480;DHT22;62333;51.980;5.934;2023-05-07T07:57:26;17.30;92.60
38480;DHT22;62333;51.980;5.934;2023-05-07T07:59:51;17.30;92.60
38480;DHT22;62333;51.980;5.934;2023-05-07T08:02:17;17.40;92.60
38480;DHT22;62333;51.980;5.934;2023-05-07T08:04:43;17.30;92.60
38480;DHT22;62333;51.980;5.934;2023-05-07T08:07:12;17.40;92.60
38480;DHT22;62333;51.980;5.934;2023-05-07T08:09:38;17.40;92.60
38480;DHT22;62333;51.980;5.934;2023-05-07T08:12:05;17.40;92.60
38480;DHT22;62333;51.980;5.934;2023-05-07T08:14:31;17.40;92.60
38480;DHT22;62333;51.980;5.934;2023-05-07T08:16:56;17.50;92.60
38480;DHT22;62333;51.980;5.934;2023-05-07T08:19:22;17.50;92.60
38480;DHT22;62333;51.980;5.934;2023-05-07T08:21:48;17.50;92.60
38480;DHT22;62333;51.980;5.934;2023-05-07T08:24:14;17.60;92.60
38480;DHT22;62333;51.980;5.934;2023-05-07T08:26:40;17.60;92.60
38480;DHT22;62333;51.980;5.934;2023-05-07T08:29:06;17.60;92.60
38480;DHT22;62333;51.980;5.934;2023-05-07T08:31:32;17.70;92.60
38480;DHT22;62333;51.980;5.934;2023-05-07T08:33:58;17.70;92.60
38480;DHT22;62333;51.980;5.934;2023-05-07T08:36:24;17.80;92.60
38480;DHT22;62333;51.980;5.934;2023-05-07T08:38:51;17.80;92.50
38480;DHT22;62333;51.980;5.934;2023-05-07T08:41:17;17.80;92.40
38480;DHT22;62333;51.980;5.934;2023-05-07T08:43:49;17.90;92.40
38480;DHT22;62333;51.980;5.934;2023-05-07T08:46:20;17.90;92.40
38480;DHT22;62333;51.980;5.934;2023-05-07T08:48:49;18.00;92.40
38480;DHT22;62333;51.980;5.934;2023-05-07T08:51:18;18.00;92.30
38480;DHT22;62333;51.980;5.934;2023-05-07T08:53:45;18.10;92.30
38480;DHT22;62333;51.980;5.934;2023-05-07T08:56:11;18.20;92.20
38480;DHT22;62333;51.980;5.934;2023-05-07T08:58:37;18.20;92.20
38480;DHT22;62333;51.980;5.934;2023-05-07T09:01:08;18.20;92.10
38480;DHT22;62333;51.980;5.934;2023-05-07T09:03:34;18.30;92.20
38480;DHT22;62333;51.980;5.934;2023-05-07T09:06:00;18.30;92.00
38480;DHT22;62333;51.980;5.934;2023-05-07T09:08:26;18.40;92.00
38480;DHT22;62333;51.980;5.934;2023-05-07T09:10:53;18.50;92.00
38480;DHT22;62333;51.980;5.934;2023-05-07T09:13:19;18.50;91.90
38480;DHT22;62333;51.980;5.934;2023-05-07T09:15:45;18.60;91.90
38480;DHT22;62333;51.980;5.934;2023-05-07T09:18:12;18.70;91.90
38480;DHT22;62333;51.980;5.934;2023-05-07T09:20:37;18.90;91.90
38480;DHT22;62333;51.980;5.934;2023-05-07T09:23:03;19.00;91.80
38480;DHT22;62333;51.980;5.934;2023-05-07T09:25:30;19.10;91.70
38480;DHT22;62333;51.980;5.934;2023-05-07T09:27:57;19.30;91.40
38480;DHT22;62333;51.980;5.934;2023-05-07T09:30:22;19.50;91.30
38480;DHT22;62333;51.980;5.934;2023-05-07T09:32:48;19.60;91.00
38480;DHT22;62333;51.980;5.934;2023-05-07T09:35:17;19.70;90.80
38480;DHT22;62333;51.980;5.934;2023-05-07T09:37:43;19.70;90.40
38480;DHT22;62333;51.980;5.934;2023-05-07T09:40:20;19.90;90.30
38480;DHT22;62333;51.980;5.934;2023-05-07T09:42:46;20.00;90.10
38480;DHT22;62333;51.980;5.934;2023-05-07T09:45:12;20.10;89.90
38480;DHT22;62333;51.980;5.934;2023-05-07T09:47:39;20.10;89.70
38480;DHT22;62333;51.980;5.934;2023-05-07T09:50:08;20.20;89.40
38480;DHT22;62333;51.980;5.934;2023-05-07T09:52:36;20.40;89.10
38480;DHT22;62333;51.980;5.934;2023-05-07T09:55:02;20.50;88.80
38480;DHT22;62333;51.980;5.934;2023-05-07T09:57:29;20.60;88.30
38480;DHT22;62333;51.980;5.934;2023-05-07T09:59:56;20.60;87.70
38480;DHT22;62333;51.980;5.934;2023-05-07T10:02:25;20.80;87.60
38480;DHT22;62333;51.980;5.934;2023-05-07T10:04:54;20.80;87.40
38480;DHT22;62333;51.980;5.934;2023-05-07T10:07:21;21.00;87.00
38480;DHT22;62333;51.980;5.934;2023-05-07T10:09:46;21.00;86.40
38480;DHT22;62333;51.980;5.934;2023-05-07T10:12:12;21.10;85.90
38480;DHT22;62333;51.980;5.934;2023-05-07T10:14:38;21.20;85.20
38480;DHT22;62333;51.980;5.934;2023-05-07T10:17:05;21.20;85.10
38480;DHT22;62333;51.980;5.934;2023-05-07T10:19:32;21.30;84.80
38480;DHT22;62333;51.980;5.934;2023-05-07T10:22:03;21.40;84.80
38480;DHT22;62333;51.980;5.934;2023-05-07T10:24:33;21.50;84.40
38480;DHT22;62333;51.980;5.934;2023-05-07T10:27:05;21.60;84.10
38480;DHT22;62333;51.980;5.934;2023-05-07T10:29:50;21.80;84.00
38480;DHT22;62333;51.980;5.934;2023-05-07T10:35:20;22.10;82.70
38480;DHT22;62333;51.980;5.934;2023-05-07T10:37:47;22.30;82.20
38480;DHT22;62333;51.980;5.934;2023-05-07T10:40:13;22.50;81.80
38480;DHT22;62333;51.980;5.934;2023-05-07T10:42:52;22.70;81.10
38480;DHT22;62333;51.980;5.934;2023-05-07T10:45:18;23.00;80.50
38480;DHT22;62333;51.980;5.934;2023-05-07T10:48:05;23.30;79.70
38480;DHT22;62333;51.980;5.934;2023-05-07T10:50:30;23.60;79.20
38480;DHT22;62333;51.980;5.934;2023-05-07T10:55:51;23.90;77.10
38480;DHT22;62333;51.980;5.934;2023-05-07T10:58:25;24.00;76.30
38480;DHT22;62333;51.980;5.934;2023-05-07T11:01:01;24.10;75.90
38480;DHT22;62333;51.980;5.934;2023-05-07T11:03:27;24.20;75.50
38480;DHT22;62333;51.980;5.934;2023-05-07T11:06:15;24.40;75.30
38480;DHT22;62333;51.980;5.934;2023-05-07T11:08:54;24.40;74.60
38480;DHT22;62333;51.980;5.934;2023-05-07T11:11:49;24.50;74.20
38480;DHT22;62333;51.980;5.934;2023-05-07T11:14:53;24.50;73.60
38480;DHT22;62333;51.980;5.934;2023-05-07T11:17:19;24.50;73.10
38480;DHT22;62333;51.980;5.934;2023-05-07T11:19:52;24.40;72.90
38480;DHT22;62333;51.980;5.934;2023-05-07T11:25:04;24.60;72.40
38480;DHT22;62333;51.980;5.934;2023-05-07T11:27:31;24.60;72.10
38480;DHT22;62333;51.980;5.934;2023-05-07T11:29:57;24.60;71.90
38480;DHT22;62333;51.980;5.934;2023-05-07T11:32:28;24.70;71.80
38480;DHT22;62333;51.980;5.934;2023-05-07T11:34:55;24.70;71.90
38480;DHT22;62333;51.980;5.934;2023-05-07T11:37:22;24.80;71.80
38480;DHT22;62333;51.980;5.934;2023-05-07T11:39:48;24.80;71.80
38480;DHT22;62333;51.980;5.934;2023-05-07T11:42:35;24.80;71.60
38480;DHT22;62333;51.980;5.934;2023-05-07T11:45:02;24.80;71.50
38480;DHT22;62333;51.980;5.934;2023-05-07T11:47:30;24.70;71.00
38480;DHT22;62333;51.980;5.934;2023-05-07T11:49:56;24.60;71.20
38480;DHT22;62333;51.980;5.934;2023-05-07T11:52:23;24.60;71.40
38480;DHT22;62333;51.980;5.934;2023-05-07T11:54:57;24.50;71.30
38480;DHT22;62333;51.980;5.934;2023-05-07T11:57:27;24.40;71.10
38480;DHT22;62333;51.980;5.934;2023-05-07T11:59:56;24.30;71.20
38480;DHT22;62333;51.980;5.934;2023-05-07T12:02:23;24.20;70.90
38480;DHT22;62333;51.980;5.934;2023-05-07T12:04:50;24.20;71.10
38480;DHT22;62333;51.980;5.934;2023-05-07T12:07:17;24.20;71.10
38480;DHT22;62333;51.980;5.934;2023-05-07T12:09:44;24.10;71.20
38480;DHT22;62333;51.980;5.934;2023-05-07T12:12:10;24.10;71.40
38480;DHT22;62333;51.980;5.934;2023-05-07T12:14:40;24.10;71.20
38480;DHT22;62333;51.980;5.934;2023-05-07T12:17:10;24.10;70.90
38480;DHT22;62333;51.980;5.934;2023-05-07T12:19:38;24.00;70.80
38480;DHT22;62333;51.980;5.934;2023-05-07T12:22:04;23.90;70.90
38480;DHT22;62333;51.980;5.934;2023-05-07T12:27:10;23.70;71.20
38480;DHT22;62333;51.980;5.934;2023-05-07T12:29:36;23.70;71.10
38480;DHT22;62333;51.980;5.934;2023-05-07T12:32:06;23.60;71.10
38480;DHT22;62333;51.980;5.934;2023-05-07T12:34:31;23.60;71.60
38480;DHT22;62333;51.980;5.934;2023-05-07T12:36:57;23.50;71.70
38480;DHT22;62333;51.980;5.934;2023-05-07T12:39:27;23.50;71.80
38480;DHT22;62333;51.980;5.934;2023-05-07T12:41:56;23.50;71.70
38480;DHT22;62333;51.980;5.934;2023-05-07T12:44:25;23.40;72.00
38480;DHT22;62333;51.980;5.934;2023-05-07T12:46:51;23.50;72.60
38480;DHT22;62333;51.980;5.934;2023-05-07T12:49:17;23.50;72.80
38480;DHT22;62333;51.980;5.934;2023-05-07T12:51:47;23.40;73.40
38480;DHT22;62333;51.980;5.934;2023-05-07T12:54:14;23.40;73.90
38480;DHT22;62333;51.980;5.934;2023-05-07T12:56:39;23.40;74.20
38480;DHT22;62333;51.980;5.934;2023-05-07T12:59:05;23.40;74.20
38480;DHT22;62333;51.980;5.934;2023-05-07T13:01:33;23.40;74.60
38480;DHT22;62333;51.980;5.934;2023-05-07T13:04:03;23.40;74.80
38480;DHT22;62333;51.980;5.934;2023-05-07T13:06:30;23.40;74.80
38480;DHT22;62333;51.980;5.934;2023-05-07T13:08:56;23.40;74.90
38480;DHT22;62333;51.980;5.934;2023-05-07T13:11:22;23.40;75.00
38480;DHT22;62333;51.980;5.934;2023-05-07T13:13:48;23.40;75.00
38480;DHT22;62333;51.980;5.934;2023-05-07T13:16:14;23.40;74.40
38480;DHT22;62333;51.980;5.934;2023-05-07T13:18:40;23.40;74.50
38480;DHT22;62333;51.980;5.934;2023-05-07T13:21:06;23.40;74.50
38480;DHT22;62333;51.980;5.934;2023-05-07T13:23:31;23.40;74.40
38480;DHT22;62333;51.980;5.934;2023-05-07T13:25:57;23.40;74.30
38480;DHT22;62333;51.980;5.934;2023-05-07T13:28:24;23.40;74.00
38480;DHT22;62333;51.980;5.934;2023-05-07T13:30:50;23.40;73.80
38480;DHT22;62333;51.980;5.934;2023-05-07T13:33:17;23.30;73.50
38480;DHT22;62333;51.980;5.934;2023-05-07T13:35:43;23.30;73.50
38480;DHT22;62333;51.980;5.934;2023-05-07T13:38:08;23.30;73.30
38480;DHT22;62333;51.980;5.934;2023-05-07T13:40:34;23.20;73.30
38480;DHT22;62333;51.980;5.934;2023-05-07T13:43:00;23.20;73.20
38480;DHT22;62333;51.980;5.934;2023-05-07T13:45:28;23.20;73.10
38480;DHT22;62333;51.980;5.934;2023-05-07T13:47:55;23.30;73.10
38480;DHT22;62333;51.980;5.934;2023-05-07T13:50:21;23.30;72.90
38480;DHT22;62333;51.980;5.934;2023-05-07T13:52:47;23.30;73.00
38480;DHT22;62333;51.980;5.934;2023-05-07T13:55:20;23.30;73.10
38480;DHT22;62333;51.980;5.934;2023-05-07T13:57:47;23.30;73.00
38480;DHT22;62333;51.980;5.934;2023-05-07T14:00:13;23.40;72.90
38480;DHT22;62333;51.980;5.934;2023-05-07T14:02:40;23.40;72.60
38480;DHT22;62333;51.980;5.934;2023-05-07T14:05:06;23.40;72.50
38480;DHT22;62333;51.980;5.934;2023-05-07T14:07:32;23.50;72.40
38480;DHT22;62333;51.980;5.934;2023-05-07T14:09:57;23.60;72.30
38480;DHT22;62333;51.980;5.934;2023-05-07T14:12:23;23.60;72.30
38480;DHT22;62333;51.980;5.934;2023-05-07T14:14:49;23.70;72.10
38480;DHT22;62333;51.980;5.934;2023-05-07T14:17:17;23.80;71.80
38480;DHT22;62333;51.980;5.934;2023-05-07T14:19:43;23.80;71.40
38480;DHT22;62333;51.980;5.934;2023-05-07T14:22:09;23.80;70.90
38480;DHT22;62333;51.980;5.934;2023-05-07T14:24:35;23.80;70.70
38480;DHT22;62333;51.980;5.934;2023-05-07T14:27:00;23.80;70.80
38480;DHT22;62333;51.980;5.934;2023-05-07T14:29:26;23.80;70.90
38480;DHT22;62333;51.980;5.934;2023-05-07T14:31:51;23.80;70.90
38480;DHT22;62333;51.980;5.934;2023-05-07T14:34:17;23.80;71.00
38480;DHT22;62333;51.980;5.934;2023-05-07T14:36:43;23.90;72.00
38480;DHT22;62333;51.980;5.934;2023-05-07T14:39:09;23.90;71.30
38480;DHT22;62333;51.980;5.934;2023-05-07T14:41:35;23.70;70.90
38480;DHT22;62333;51.980;5.934;2023-05-07T14:44:01;23.70;71.10
38480;DHT22;62333;51.980;5.934;2023-05-07T14:46:27;23.60;71.00
38480;DHT22;62333;51.980;5.934;2023-05-07T14:48:52;23.50;71.00
38480;DHT22;62333;51.980;5.934;2023-05-07T14:51:18;23.40;70.80
38480;DHT22;62333;51.980;5.934;2023-05-07T14:53:44;23.30;70.30
38480;DHT22;62333;51.980;5.934;2023-05-07T14:56:10;23.20;70.40
38480;DHT22;62333;51.980;5.934;2023-05-07T14:58:36;23.20;69.40
38480;DHT22;62333;51.980;5.934;2023-05-07T15:01:03;23.10;69.00
38480;DHT22;62333;51.980;5.934;2023-05-07T15:03:28;23.10;68.80
38480;DHT22;62333;51.980;5.934;2023-05-07T15:05:55;23.00;68.80
38480;DHT22;62333;51.980;5.934;2023-05-07T15:08:20;23.00;69.10
38480;DHT22;62333;51.980;5.934;2023-05-07T15:10:46;22.90;69.50
38480;DHT22;62333;51.980;5.934;2023-05-07T15:13:12;22.90;70.00
38480;DHT22;62333;51.980;5.934;2023-05-07T15:15:42;22.90;70.30
38480;DHT22;62333;51.980;5.934;2023-05-07T15:18:09;22.80;70.10
38480;DHT22;62333;51.980;5.934;2023-05-07T15:20:36;22.80;70.20
38480;DHT22;62333;51.980;5.934;2023-05-07T15:23:02;22.80;70.20
38480;DHT22;62333;51.980;5.934;2023-05-07T15:25:30;22.70;70.30
38480;DHT22;62333;51.980;5.934;2023-05-07T15:27:56;22.70;70.60
38480;DHT22;62333;51.980;5.934;2023-05-07T15:30:22;22.70;70.90
38480;DHT22;62333;51.980;5.934;2023-05-07T15:32:48;22.60;71.10
38480;DHT22;62333;51.980;5.934;2023-05-07T15:35:14;22.60;71.10
38480;DHT22;62333;51.980;5.934;2023-05-07T15:37:39;22.60;71.00